MA37 weather

Falmouth Hospital Heliport
Falmouth, Massachusetts, United States

Public forecast

Using degrees Fahrenheit for public forecast. Weather courtesy of forecast.io.

METAR (pilot weather report)

Closest report is Cape Cod Coast Guard Air Station, 7.3 nm (13.5 km) NE. Retrieved 2019/09/19 02:50 UTC (48 minutes ago):

KFMH 190250Z 06010G18KT 10SM FEW027 BKN034 12/05 A3031

TAF (pilot weather forecast)

Forecast is more than 12 hours old.

Closest forecast is Cape Cod Coast Guard Air Station, 7.3 nm (13.5 km) NE. Retrieved 2019/09/18 00:22 UTC (1 day ago):

TAF KFMH 182320Z 1900/1924 04009KT P6SM SCT045 FM190100 04009KT P6SM FEW250 FM191400 03010G18KT P6SM SKC FM191900 03009KT P6SM SKC